Glennallen, AK (99588)

11:02 AM AKDT on July 11, 2014 (GMT -0800)
Gulkana (PAGK) Elev 1578 ft | 62.16 °N, 145.46 °W | Change Station

Current weather conditions updated 9 minutes ago

Light Rain
Light Rain
49 °F
Feels Like 49 °F
N
9
Wind Variable Wind from South

Today is forecast to be Cooler than yesterday.

Today
High -- | Low -- °F
--% Chance of Precip.
Yesterday
High -- | Low -- °F
Precip. -- in
4:19 AM 11:21 PM
Waxing Gibbous, 99% visible
Pressure 29.74 in
Visibility 10.0 miles
Clouds Mostly Cloudy 600 ft
Mostly Cloudy 5500 ft
Overcast 6500 ft
Dew Point 48 °F
Humidity 97%
Rainfall 0.25 in
Snow Depth Not available.
UV 2 out of 12
Pollen Not available.
Air Quality Not available.
Flu Activity Sporadic
METAR PAGK 111853Z AUTO 17008KT 10SM -RA BKN006 BKN055 OVC065 09/09 A2972 RMK AO2 SLP070 P0003 T00940089 TSNO

More Conditions Fewer Conditions

Pressure 29.74 in
Visibility 10.0 miles
Clouds Mostly Cloudy 600 ft
Mostly Cloudy 5500 ft
Overcast 6500 ft
Dew Point 48 °F
Humidity 97%
Rainfall 0.25 in
Snow Depth Not available.
UV 2 out of 12
Pollen Not available.
Air Quality Not available.
Flu Activity Sporadic
METAR PAGK 111853Z AUTO 17008KT 10SM -RA BKN006 BKN055 OVC065 09/09 A2972 RMK AO2 SLP070 P0003 T00940089 TSNO

More Conditions Fewer Conditions

10-Day Weather Forecast

Almanac

Astronomy

Jul. 11, 2014 Rise Set
Actual Time 4:19 AM AKDT 11:21 PM AKDT
Civil Twilight 2:23 AM AKDT 1:46 AM AKDT
Nautical Twilight Sun does not rise Sun does not rise
Astronomical Twilight Sun does not rise Sun does not rise
Moon 10:02 PM AKDT 4:11 AM AKDT
Length of Visible Light 23h 23m
Length of Day
19h 01m
Tomorrow will be 4m 4s shorter.
Waxing Gibbous, 99% of the Moon is Illuminated
Today
Waxing Gibbous
Jul 12
Full
Jul 18
Last Quarter
Jul 26
New
Aug 3
First Quarter

Today's Extremes

State Highs State Lows

Community

WunderPhotos

Upload Photos

1,732,549 photos uploaded!

WunderBlogs® & News

Nearby

Snow Depth

Station Depth Elevation
Upper Tsaina River 0 in 1750 ft
Moraine 0 in 2100 ft
Susitna Valley High 109 in 375 ft
Indian Pass 2 in 2300 ft
Turnagain Pass 0 in 1880 ft

Earthquake Activity

City Distance Mag. Time & Date
No recent earthquake activity has been reported nearby.
Minimum magnitude displayed is 2.5.

Coastal Water Temperatures

Place Temperature
No Stations Reporting

Nearby Weather Stations

Station Location Temp. Windchill Dew Point Humidity Wind Precip. Elev Updated Type
AKDOT Glenn Highway @ MP 176.6, Glennallen, AK 47 °F 44 °F 46 °F 96% ESE  at  6 mph 0.00 in / hr 2112 ft 9:35 AM AKDT MADIS

Show More Stations Show Fewer Stations